Ceres, Washington
Current Conditions -  °F | °C
As of 4:35 AM on Tuesday 27 Jan 2015 (Local Time) from KCLS Reporting Station
Moderate Fog Moderate Fog  
Wind Chill:   Ceiling: 400
Heat Index:   Visibility: 0mi
Dew Point:   Wind: 5mph
Humidity: 100%   Direction: 200°SSW
Pressure: 30.01"   Gusts: NA
Location:  46.6561°N, 122.993°W
Report Text: KCLS 271235Z AUTO 20004KT M1/4SM FG OVC004 07/07 A3001 RMK AO2 VIS M1/4V5
Loading
Personal Weather Stations






























Interactive Weather Map New forecast layout! Learn more

10-Day Weather Forecast

Advertisements
Track Severe Weather on mobile